Time;durP1;ratioP1;P1;durP2;ratioP2;P2;SDS_P1;SDS_P2;PMS_P1;PMS_P2;Temp;Humidity;BMP_temperature;BMP_pressure;BME280_temperature;BME280_humidity;BME280_pressure;Samples;Min_cycle;Max_cycle;Signal;HPM_P1;HPM_P2
2022/05/03 00:01:48;;;;;;;26.48;14.73;;;;;;;;;;5054396;28;20029;-43
2022/05/03 00:04:22;;;;;;;20.30;10.27;;;;;;;;;;5053788;28;20083;-43
2022/05/03 00:06:53;;;;;;;26.63;13.20;;;;;;;;;;5054207;28;20048;-43
2022/05/03 00:09:19;;;;;;;;;;;;;;;;;;5054539;28;20025;-39
2022/05/03 00:11:51;;;;;;;27.73;13.80;;;;;;;;;;5054050;28;20387;-40
2022/05/03 00:14:21;;;;;;;19.67;11.88;;;;;;;;;;5053929;28;20110;-42
2022/05/03 00:16:49;;;;;;;26.60;12.05;;;;;;;;;;5053850;28;20029;-43
2022/05/03 00:19:15;;;;;;;21.45;10.00;;;;;;;;;;5054104;28;20017;-43
2022/05/03 00:21:41;;;;;;;13.18;7.93;;;;;;;;;;5053816;28;20033;-43
2022/05/03 00:24:08;;;;;;;20.75;10.23;;;;;;;;;;5053690;28;20437;-39
2022/05/03 00:26:35;;;;;;;21.25;10.02;;;;;;;;;;5053314;28;20378;-40
2022/05/03 00:29:01;;;;;;;18.38;9.43;;;;;;;;;;5053993;28;20025;-42
2022/05/03 00:31:28;;;;;;;18.20;10.55;;;;;;;;;;5053659;28;20032;-42
2022/05/03 00:33:55;;;;;;;19.15;10.25;;;;;;;;;;5052565;28;20029;-42
2022/05/03 00:36:21;;;;;;;13.63;7.43;;;;;;;;;;5053038;28;20041;-40
2022/05/03 00:38:47;;;;;;;15.35;8.27;;;;;;;;;;5053756;28;20029;-43
2022/05/03 00:41:17;;;;;;;20.67;10.73;;;;;;;;;;5052565;28;20033;-42
2022/05/03 00:43:46;;;;;;;26.10;11.27;;;;;;;;;;5053367;28;20031;-42
2022/05/03 00:46:21;;;;;;;30.98;18.33;;;;;;;;;;5053521;28;20025;-41
2022/05/03 00:49:06;;;;;;;34.50;20.80;;;;;;;;;;5053570;28;20366;-41
2022/05/03 00:51:46;;;;;;;22.23;13.90;;;;;;;;;;5053597;28;20076;-41
2022/05/03 00:54:18;;;;;;;17.48;9.88;;;;;;;;;;5052815;28;20048;-40
2022/05/03 00:56:51;;;;;;;19.25;10.00;;;;;;;;;;5053234;28;20468;-43
2022/05/03 00:59:36;;;;;;;19.95;11.13;;;;;;;;;;5053671;28;20070;-40
2022/05/03 01:02:07;;;;;;;17.05;8.00;;;;;;;;;;5053161;28;20087;-42
2022/05/03 01:04:42;;;;;;;13.57;7.72;;;;;;;;;;5052795;28;20027;-42
2022/05/03 01:07:08;;;;;;;12.25;7.10;;;;;;;;;;5053322;28;20427;-43
2022/05/03 01:09:46;;;;;;;10.38;6.95;;;;;;;;;;5052993;28;20017;-42
2022/05/03 01:12:15;;;;;;;14.02;8.05;;;;;;;;;;5053062;28;20025;-41
2022/05/03 01:14:51;;;;;;;10.48;6.95;;;;;;;;;;5052874;28;20029;-42
2022/05/03 01:17:23;;;;;;;17.23;7.78;;;;;;;;;;5053032;28;20115;-41
2022/05/03 01:19:52;;;;;;;16.10;6.43;;;;;;;;;;5053394;28;20082;-42
2022/05/03 01:22:37;;;;;;;11.15;6.55;;;;;;;;;;5053077;28;20037;-41
2022/05/03 01:25:22;;;;;;;11.88;6.80;;;;;;;;;;5052817;28;20021;-43
2022/05/03 01:27:49;;;;;;;12.38;7.65;;;;;;;;;;5053019;28;20040;-41
2022/05/03 01:30:15;;;;;;;10.48;6.80;;;;;;;;;;5053099;28;20029;-38
2022/05/03 01:32:45;;;;;;;14.43;6.93;;;;;;;;;;5053183;28;20449;-40
2022/05/03 01:35:15;;;;;;;12.73;7.57;;;;;;;;;;5052443;28;20063;-39
2022/05/03 01:37:59;;;;;;;10.73;6.40;;;;;;;;;;5052731;28;20151;-41
2022/05/03 01:40:25;;;;;;;11.98;6.80;;;;;;;;;;5053021;28;20098;-42
2022/05/03 01:42:52;;;;;;;10.07;5.90;;;;;;;;;;5052980;28;20036;-42
2022/05/03 01:45:23;;;;;;;11.52;6.47;;;;;;;;;;5055248;28;20025;-41
2022/05/03 01:47:49;;;;;;;;;;;;;;;;;;5057496;28;20472;-40
2022/05/03 01:50:18;;;;;;;11.32;6.10;;;;;;;;;;5056647;28;19942;-40
2022/05/03 01:52:44;;;;;;;10.13;5.75;;;;;;;;;;5056371;28;20025;-42
2022/05/03 01:55:24;;;;;;;10.50;6.45;;;;;;;;;;5056303;28;20032;-41
2022/05/03 01:57:50;;;;;;;9.93;6.40;;;;;;;;;;5055295;28;20091;-43
2022/05/03 02:00:19;;;;;;;11.90;6.85;;;;;;;;;;5056433;28;20626;-43
2022/05/03 02:02:45;;;;;;;15.15;7.00;;;;;;;;;;5056557;28;20048;-41
2022/05/03 02:05:32;;;;;;;11.02;6.45;;;;;;;;;;5056164;28;20396;-41
2022/05/03 02:07:58;;;;;;;14.65;7.15;;;;;;;;;;5049292;28;20393;-41
2022/05/03 02:10:46;;;;;;;19.75;9.30;;;;;;;;;;5056308;28;20017;-40
2022/05/03 02:13:15;;;;;;;24.20;11.38;;;;;;;;;;5056116;28;20090;-41
2022/05/03 02:15:44;;;;;;;37.10;15.45;;;;;;;;;;5055875;28;20052;-41
2022/05/03 02:18:15;;;;;;;38.45;15.52;;;;;;;;;;5056200;28;20384;-41
2022/05/03 02:20:47;;;;;;;38.08;15.13;;;;;;;;;;5056372;28;20536;-40
2022/05/03 02:23:16;;;;;;;43.58;16.75;;;;;;;;;;5056159;28;20029;-41
2022/05/03 02:25:46;;;;;;;39.67;14.65;;;;;;;;;;5055593;28;20036;-41
2022/05/03 02:28:15;;;;;;;39.30;13.73;;;;;;;;;;5056266;28;20024;-42
2022/05/03 02:30:42;;;;;;;33.08;13.95;;;;;;;;;;5055739;28;20408;-40
2022/05/03 02:33:34;;;;;;;34.35;12.55;;;;;;;;;;5055818;28;20033;-42
2022/05/03 02:36:03;;;;;;;30.48;11.80;;;;;;;;;;5038634;28;20038;-41
2022/05/03 02:38:37;;;;;;;27.67;11.30;;;;;;;;;;5033393;28;20458;-41
2022/05/03 02:41:03;;;;;;;20.50;9.35;;;;;;;;;;5033863;28;20044;-43
2022/05/03 02:43:35;;;;;;;23.58;9.50;;;;;;;;;;5033798;28;20025;-41
2022/05/03 02:46:06;;;;;;;20.67;10.25;;;;;;;;;;5033741;28;20033;-38
2022/05/03 02:48:41;;;;;;;18.08;8.98;;;;;;;;;;5033768;28;20022;-40
2022/05/03 02:51:08;;;;;;;31.27;11.90;;;;;;;;;;5033650;28;20049;-40
2022/05/03 02:53:48;;;;;;;32.90;15.30;;;;;;;;;;5033172;28;20524;-43
2022/05/03 02:56:24;;;;;;;44.90;16.58;;;;;;;;;;5032458;28;20112;-44
2022/05/03 02:58:50;;;;;;;46.47;18.48;;;;;;;;;;5033393;28;20037;-40
2022/05/03 03:04:16;;;;;;;36.88;14.20;;;;;;;;;;5033289;28;20175;-40
2022/05/03 03:06:44;;;;;;;37.38;14.27;;;;;;;;;;5013490;28;20128;-40
2022/05/03 03:09:13;;;;;;;34.25;13.52;;;;;;;;;;5013646;28;20029;-42
2022/05/03 03:11:53;;;;;;;36.28;14.38;;;;;;;;;;5013621;28;20030;-39
2022/05/03 03:14:48;;;;;;;29.73;11.32;;;;;;;;;;5034911;28;20531;-41
2022/05/03 03:17:22;;;;;;;28.75;10.90;;;;;;;;;;5034893;28;20515;-42
2022/05/03 03:19:48;;;;;;;28.10;10.68;;;;;;;;;;5035330;28;20026;-42
2022/05/03 03:22:15;;;;;;;27.05;10.82;;;;;;;;;;5035068;28;20064;-41
2022/05/03 03:24:41;;;;;;;25.88;9.30;;;;;;;;;;5034925;28;20063;-39
2022/05/03 03:27:09;;;;;;;27.25;10.93;;;;;;;;;;5035024;28;20029;-42
2022/05/03 03:29:37;;;;;;;27.50;10.27;;;;;;;;;;5035023;28;20026;-42
2022/05/03 03:32:04;;;;;;;17.92;9.27;;;;;;;;;;5034890;28;20030;-41
2022/05/03 03:34:31;;;;;;;24.30;10.25;;;;;;;;;;5036508;28;20029;-42
2022/05/03 03:37:01;;;;;;;22.95;8.93;;;;;;;;;;5054525;28;20033;-40
2022/05/03 03:39:33;;;;;;;19.67;8.82;;;;;;;;;;5054814;28;20090;-39
2022/05/03 03:42:03;;;;;;;23.30;10.30;;;;;;;;;;5054243;28;20032;-42
2022/05/03 03:44:33;;;;;;;39.63;19.67;;;;;;;;;;5054715;28;20021;-42
2022/05/03 03:47:00;;;;;;;76.32;38.97;;;;;;;;;;5054489;28;20150;-42
2022/05/03 03:49:26;;;;;;;68.45;29.38;;;;;;;;;;5054424;28;20044;-42
2022/05/03 03:51:53;;;;;;;51.95;25.05;;;;;;;;;;5054468;28;20024;-42
2022/05/03 03:54:19;;;;;;;51.47;23.48;;;;;;;;;;5054330;28;20029;-43
2022/05/03 03:56:48;;;;;;;23.25;12.90;;;;;;;;;;5054010;28;20025;-42
2022/05/03 03:59:15;;;;;;;31.75;12.57;;;;;;;;;;5054585;28;20080;-42
2022/05/03 04:01:41;;;;;;;16.10;7.50;;;;;;;;;;5054217;28;20104;-42
2022/05/03 04:04:08;;;;;;;12.85;5.10;;;;;;;;;;5054159;28;20033;-42
2022/05/03 04:06:35;;;;;;;7.78;4.18;;;;;;;;;;5053839;28;20527;-41
2022/05/03 04:09:01;;;;;;;7.43;3.85;;;;;;;;;;5053383;28;20033;-42
2022/05/03 04:11:27;;;;;;;10.52;3.78;;;;;;;;;;5054008;28;20033;-42
2022/05/03 04:13:56;;;;;;;8.82;4.40;;;;;;;;;;5054163;28;20025;-42
2022/05/03 04:16:22;;;;;;;6.88;4.13;;;;;;;;;;5053631;28;20051;-42
2022/05/03 04:18:48;;;;;;;8.85;4.47;;;;;;;;;;5054040;28;20115;-42
2022/05/03 04:24:02;;;;;;;14.27;6.65;;;;;;;;;;5053370;28;20449;-46
2022/05/03 04:26:28;;;;;;;20.67;7.70;;;;;;;;;;5054231;28;20025;-41
2022/05/03 04:28:58;;;;;;;14.70;6.78;;;;;;;;;;5053851;28;20029;-41
2022/05/03 04:31:25;;;;;;;13.05;6.57;;;;;;;;;;5053758;28;20071;-41
2022/05/03 04:33:51;;;;;;;12.90;5.80;;;;;;;;;;5053690;28;20110;-43
2022/05/03 04:36:21;;;;;;;13.30;6.20;;;;;;;;;;5053246;28;20025;-41
2022/05/03 04:38:47;;;;;;;11.68;6.90;;;;;;;;;;5053303;28;20037;-42
2022/05/03 04:41:13;;;;;;;21.75;7.07;;;;;;;;;;5053649;28;20117;-42
2022/05/03 04:43:39;;;;;;;15.63;7.63;;;;;;;;;;5053813;28;20029;-43
2022/05/03 04:46:05;;;;;;;18.45;7.57;;;;;;;;;;5053873;28;20025;-42
2022/05/03 04:48:31;;;;;;;19.58;10.27;;;;;;;;;;5053559;28;20389;-42
2022/05/03 04:50:57;;;;;;;20.05;10.93;;;;;;;;;;5053369;28;20048;-42
2022/05/03 04:53:23;;;;;;;27.48;10.43;;;;;;;;;;5053114;28;20025;-41
2022/05/03 04:55:52;;;;;;;11.40;5.65;;;;;;;;;;5053364;28;20075;-40
2022/05/03 04:58:18;;;;;;;10.50;5.47;;;;;;;;;;5053255;28;20055;-41
2022/05/03 05:00:45;;;;;;;10.70;4.82;;;;;;;;;;5053156;28;20067;-41
2022/05/03 05:03:11;;;;;;;11.27;4.78;;;;;;;;;;5052061;28;20032;-42
2022/05/03 05:05:37;;;;;;;10.73;4.15;;;;;;;;;;5053263;28;20071;-42
2022/05/03 05:08:04;;;;;;;12.88;4.97;;;;;;;;;;5053199;28;20036;-42
2022/05/03 05:10:32;;;;;;;8.05;3.97;;;;;;;;;;5053273;28;20034;-40
2022/05/03 05:12:58;;;;;;;7.60;3.92;;;;;;;;;;5053221;28;20029;-55
2022/05/03 05:15:24;;;;;;;6.70;4.03;;;;;;;;;;5052984;28;20070;-44
2022/05/03 05:17:53;;;;;;;6.93;3.85;;;;;;;;;;5053046;28;20040;-49
2022/05/03 05:20:22;;;;;;;6.22;4.13;;;;;;;;;;5055914;28;20407;-44
2022/05/03 05:22:48;;;;;;;8.93;4.22;;;;;;;;;;5057492;28;20079;-41
2022/05/03 05:25:14;;;;;;;11.02;5.20;;;;;;;;;;5057146;28;20029;-45
2022/05/03 05:27:43;;;;;;;7.72;4.45;;;;;;;;;;5057213;28;20027;-44
2022/05/03 05:30:09;;;;;;;8.95;4.40;;;;;;;;;;5057295;28;20047;-40
2022/05/03 05:32:36;;;;;;;10.40;5.05;;;;;;;;;;5057306;28;20086;-44
2022/05/03 05:35:04;;;;;;;13.32;6.22;;;;;;;;;;5056787;28;20033;-41
2022/05/03 05:37:30;;;;;;;16.50;6.50;;;;;;;;;;5056540;28;20021;-46
2022/05/03 05:39:56;;;;;;;9.38;5.10;;;;;;;;;;5057098;28;20060;-49
2022/05/03 05:42:22;;;;;;;6.93;3.67;;;;;;;;;;5056984;28;20087;-52
2022/05/03 05:44:49;;;;;;;11.60;3.78;;;;;;;;;;5056779;28;20040;-41
2022/05/03 05:47:18;;;;;;;14.18;3.47;;;;;;;;;;5056770;28;20044;-50
2022/05/03 05:49:44;;;;;;;9.70;3.50;;;;;;;;;;5056662;28;20134;-46
2022/05/03 05:55:15;;;;;;;10.10;4.20;;;;;;;;;;5034222;28;20061;-44
2022/05/03 05:57:41;;;;;;;15.10;4.40;;;;;;;;;;5034273;28;20096;-38
2022/05/03 06:00:07;;;;;;;8.88;4.18;;;;;;;;;;5034616;28;20042;-43
2022/05/03 06:02:35;;;;;;;11.55;4.03;;;;;;;;;;5034743;28;20041;-41
2022/05/03 06:05:01;;;;;;;9.77;4.40;;;;;;;;;;5034432;28;20025;-40
2022/05/03 06:07:27;;;;;;;9.13;3.75;;;;;;;;;;5034209;28;20068;-42
2022/05/03 06:09:53;;;;;;;4.97;3.35;;;;;;;;;;5034820;28;20060;-40
2022/05/03 06:12:19;;;;;;;12.82;5.00;;;;;;;;;;5034286;28;20037;-40
2022/05/03 06:14:45;;;;;;;6.32;3.40;;;;;;;;;;5034450;28;20033;-41
2022/05/03 06:17:11;;;;;;;5.28;3.00;;;;;;;;;;5033396;28;20030;-40
2022/05/03 06:19:37;;;;;;;4.93;3.30;;;;;;;;;;5034287;28;20049;-41
2022/05/03 06:22:03;;;;;;;5.30;3.00;;;;;;;;;;5034250;28;20021;-40
2022/05/03 06:24:29;;;;;;;7.13;3.25;;;;;;;;;;5033740;28;20052;-41
2022/05/03 06:26:56;;;;;;;5.60;2.63;;;;;;;;;;5053764;28;20384;-41
2022/05/03 06:29:22;;;;;;;5.78;2.65;;;;;;;;;;5056163;28;20048;-40
2022/05/03 06:31:48;;;;;;;4.43;2.50;;;;;;;;;;5054878;28;20027;-44
2022/05/03 06:34:17;;;;;;;3.17;2.10;;;;;;;;;;5055951;28;20040;-41
2022/05/03 06:36:43;;;;;;;3.50;2.17;;;;;;;;;;5055445;28;20029;-41
2022/05/03 06:39:09;;;;;;;7.07;2.38;;;;;;;;;;5055649;28;20423;-41
2022/05/03 06:41:35;;;;;;;4.80;1.98;;;;;;;;;;5056011;28;20021;-40
2022/05/03 06:44:02;;;;;;;4.90;1.90;;;;;;;;;;5055905;28;20086;-41
2022/05/03 06:46:28;;;;;;;5.95;2.05;;;;;;;;;;5055949;28;20108;-43
2022/05/03 06:48:55;;;;;;;2.67;1.67;;;;;;;;;;5055436;28;20017;-42
2022/05/03 06:51:21;;;;;;;5.28;1.90;;;;;;;;;;5055379;28;20124;-42
2022/05/03 06:53:48;;;;;;;3.67;1.90;;;;;;;;;;5055118;28;20021;-42
2022/05/03 06:56:17;;;;;;;12.65;2.55;;;;;;;;;;5055147;28;20032;-42
2022/05/03 06:58:45;;;;;;;4.07;2.15;;;;;;;;;;5055324;28;20036;-42
2022/05/03 07:01:13;;;;;;;7.32;3.72;;;;;;;;;;5055719;28;20025;-40
2022/05/03 07:03:40;;;;;;;10.82;4.88;;;;;;;;;;5055276;28;20107;-42
2022/05/03 07:06:06;;;;;;;36.67;18.52;;;;;;;;;;5054913;28;20021;-41
2022/05/03 07:08:32;;;;;;;7.72;4.97;;;;;;;;;;5054316;28;20021;-41
2022/05/03 07:10:58;;;;;;;5.97;2.42;;;;;;;;;;5054588;28;20055;-42
2022/05/03 07:13:25;;;;;;;10.00;5.07;;;;;;;;;;5054689;28;20100;-41
2022/05/03 07:15:55;;;;;;;5.57;2.72;;;;;;;;;;5054513;28;20477;-41
2022/05/03 07:23:52;;;;;;;9.77;5.05;;;;;;;;;;5053620;28;20043;-40
2022/05/03 07:26:18;;;;;;;7.00;3.33;;;;;;;;;;5054109;28;20024;-40
2022/05/03 07:28:47;;;;;;;16.20;8.20;;;;;;;;;;5054296;28;20025;-40
2022/05/03 07:31:13;;;;;;;6.32;3.20;;;;;;;;;;5054259;28;20036;-40
2022/05/03 07:33:40;;;;;;;20.27;9.80;;;;;;;;;;5051400;28;20033;-40
2022/05/03 07:36:06;;;;;;;5.82;3.75;;;;;;;;;;5053949;28;20028;-40
2022/05/03 07:38:32;;;;;;;11.95;2.40;;;;;;;;;;5053784;28;20083;-40
2022/05/03 07:40:58;;;;;;;13.48;6.03;;;;;;;;;;5053922;28;20017;-41
2022/05/03 07:43:25;;;;;;;6.00;3.13;;;;;;;;;;5053893;28;20028;-41
2022/05/03 07:45:51;;;;;;;10.63;4.95;;;;;;;;;;5053784;28;20491;-40
2022/05/03 07:48:17;;;;;;;3.90;2.78;;;;;;;;;;5053808;28;20028;-41
2022/05/03 07:50:46;;;;;;;6.97;3.67;;;;;;;;;;5053730;28;20052;-41
2022/05/03 07:53:13;;;;;;;3.00;1.77;;;;;;;;;;5053827;28;20025;-41
2022/05/03 07:55:39;;;;;;;5.03;2.00;;;;;;;;;;5053395;28;20025;-41
2022/05/03 07:58:05;;;;;;;14.10;6.80;;;;;;;;;;5053265;28;20106;-44
2022/05/03 08:00:33;;;;;;;2.70;1.80;;;;;;;;;;5053618;28;20056;-40
2022/05/03 08:03:02;;;;;;;3.35;1.73;;;;;;;;;;5053952;28;20496;-42
2022/05/03 08:05:28;;;;;;;7.53;1.92;;;;;;;;;;5053413;28;20043;-42
2022/05/03 08:07:54;;;;;;;8.00;3.13;;;;;;;;;;5052564;28;20513;-41
2022/05/03 08:10:20;;;;;;;6.55;3.78;;;;;;;;;;5053543;28;20032;-41
2022/05/03 08:12:51;;;;;;;5.50;1.88;;;;;;;;;;5054270;28;20052;-41
2022/05/03 08:15:18;;;;;;;12.85;4.05;;;;;;;;;;5052932;28;20108;-41
2022/05/03 08:17:44;;;;;;;5.03;2.42;;;;;;;;;;5053210;28;20128;-37
2022/05/03 08:20:11;;;;;;;15.00;5.30;;;;;;;;;;5053853;28;20021;-36
2022/05/03 08:22:37;;;;;;;12.05;3.53;;;;;;;;;;5053245;28;20031;-36
2022/05/03 08:25:03;;;;;;;2.75;1.70;;;;;;;;;;5052984;28;20039;-38
2022/05/03 08:27:30;;;;;;;8.60;3.45;;;;;;;;;;5052893;28;20099;-40
2022/05/03 08:29:56;;;;;;;7.10;3.33;;;;;;;;;;5052907;28;20115;-38
2022/05/03 08:32:22;;;;;;;4.93;1.80;;;;;;;;;;5053265;28;20029;-39
2022/05/03 08:34:49;;;;;;;5.43;3.10;;;;;;;;;;5053323;28;20020;-39
2022/05/03 08:42:44;;;;;;;4.90;2.70;;;;;;;;;;5052793;28;20028;-40
2022/05/03 08:45:10;;;;;;;2.78;1.83;;;;;;;;;;5053077;28;20461;-40
2022/05/03 08:47:38;;;;;;;8.10;1.85;;;;;;;;;;5052539;28;20058;-39
2022/05/03 08:50:04;;;;;;;6.88;3.35;;;;;;;;;;5052410;28;20076;-39
2022/05/03 08:52:33;;;;;;;1.80;1.42;;;;;;;;;;5052961;28;20028;-38
2022/05/03 08:55:03;;;;;;;2.45;1.40;;;;;;;;;;5051917;28;20017;-39
2022/05/03 08:57:29;;;;;;;14.25;2.20;;;;;;;;;;5050160;28;20047;-40
2022/05/03 08:59:55;;;;;;;5.40;2.60;;;;;;;;;;5052435;28;20454;-39
2022/05/03 09:02:21;;;;;;;5.60;2.75;;;;;;;;;;5052690;28;20068;-40
2022/05/03 09:06:51;;;;;;;6.00;2.58;;;;;;;;;;5070255;28;20708;-51
2022/05/03 09:09:19;;;;;;;3.38;1.90;;;;;;;;;;5068731;28;20074;-48
2022/05/03 09:11:46;;;;;;;2.67;1.50;;;;;;;;;;5068474;28;20064;-48
2022/05/03 09:15:12;;;;;;;7.32;2.15;;;;;;;;;;5070298;28;20441;-50
2022/05/03 09:17:40;;;;;;;3.38;1.75;;;;;;;;;;5069797;28;20075;-47
2022/05/03 09:26:10;;;;;;;2.83;1.85;;;;;;;;;;5069273;28;20043;-52
2022/05/03 09:28:43;;;;;;;4.70;1.75;;;;;;;;;;5068305;28;20009;-52
2022/05/03 09:31:09;;;;;;;3.47;1.98;;;;;;;;;;5067566;28;20024;-52
2022/05/03 09:33:37;;;;;;;5.38;1.65;;;;;;;;;;5069759;28;20075;-55
2022/05/03 09:36:10;;;;;;;4.53;1.70;;;;;;;;;;5069912;28;20024;-53
2022/05/03 09:38:49;;;;;;;4.47;1.90;;;;;;;;;;5069955;28;20087;-54
2022/05/03 09:41:16;;;;;;;6.80;3.22;;;;;;;;;;5070081;28;20469;-54
2022/05/03 09:44:01;;;;;;;15.23;8.63;;;;;;;;;;5070110;28;20043;-52
2022/05/03 09:46:28;;;;;;;7.32;3.72;;;;;;;;;;5069921;28;20024;-53
2022/05/03 09:48:55;;;;;;;4.75;2.70;;;;;;;;;;5069447;28;20091;-51
2022/05/03 09:51:22;;;;;;;4.68;3.05;;;;;;;;;;5069528;28;20032;-51
2022/05/03 09:53:58;;;;;;;5.07;2.70;;;;;;;;;;5069519;28;20484;-49
2022/05/03 09:56:25;;;;;;;9.20;4.20;;;;;;;;;;5069673;28;20025;-53
2022/05/03 09:58:54;;;;;;;111.50;37.50;;;;;;;;;;5069516;28;20071;-44
2022/05/03 10:01:21;;;;;;;152.52;74.78;;;;;;;;;;5070083;28;20024;-45
2022/05/03 10:03:49;;;;;;;74.80;41.03;;;;;;;;;;5069813;28;20100;-45
2022/05/03 10:06:16;;;;;;;95.93;47.53;;;;;;;;;;5069726;28;20012;-46
2022/05/03 10:08:44;;;;;;;87.47;39.42;;;;;;;;;;5068697;28;20025;-62
2022/05/03 20:02:45;;;;;;;24.63;9.93;;;;;;;;;;5090676;27;20463;-35
2022/05/03 20:05:11;;;;;;;12.23;6.25;;;;;;;;;;5073502;28;20025;-34
2022/05/03 20:07:38;;;;;;;10.90;5.82;;;;;;;;;;5072960;28;20448;-34
2022/05/03 20:10:09;;;;;;;15.52;5.60;;;;;;;;;;5072461;28;20024;-35
2022/05/03 20:12:36;;;;;;;10.80;6.50;;;;;;;;;;5072353;28;20025;-35
2022/05/03 20:15:03;;;;;;;16.33;8.07;;;;;;;;;;5072542;28;20025;-41
2022/05/03 20:17:30;;;;;;;76.47;43.25;;;;;;;;;;5073151;28;20848;-39
2022/05/03 20:19:56;;;;;;;67.60;40.92;;;;;;;;;;5074407;28;20025;-36
2022/05/03 20:22:22;;;;;;;116.45;66.30;;;;;;;;;;5073427;28;20385;-40
2022/05/03 20:24:48;;;;;;;108.68;62.60;;;;;;;;;;5071196;28;20016;-40
2022/05/03 20:27:16;;;;;;;85.50;45.13;;;;;;;;;;5086884;28;20495;-41
2022/05/03 20:29:42;;;;;;;109.57;64.53;;;;;;;;;;5071775;28;20021;-40
2022/05/03 20:32:11;;;;;;;45.83;26.08;;;;;;;;;;5071081;28;20506;-40
2022/05/03 20:34:37;;;;;;;40.58;19.73;;;;;;;;;;5072326;28;20128;-38
2022/05/03 20:37:04;;;;;;;22.23;13.15;;;;;;;;;;5071274;28;20052;-37
2022/05/03 20:39:30;;;;;;;30.15;16.90;;;;;;;;;;5071181;28;20070;-40
2022/05/03 20:42:00;;;;;;;23.30;14.50;;;;;;;;;;5071298;28;20029;-38
2022/05/03 20:44:26;;;;;;;37.00;17.77;;;;;;;;;;5070760;28;20070;-40
2022/05/03 20:49:41;;;;;;;28.10;15.60;;;;;;;;;;5073244;28;20098;-41
2022/05/03 20:52:07;;;;;;;47.58;27.05;;;;;;;;;;5071778;28;20028;-40
2022/05/03 20:54:34;;;;;;;58.25;35.60;;;;;;;;;;5072878;28;20023;-39
2022/05/03 20:57:00;;;;;;;58.05;31.95;;;;;;;;;;5071606;28;20025;-34
2022/05/03 20:59:26;;;;;;;55.25;24.60;;;;;;;;;;5071709;28;20036;-37
2022/05/03 21:01:52;;;;;;;48.22;21.27;;;;;;;;;;5071961;28;20177;-40
2022/05/03 21:04:18;;;;;;;36.13;17.65;;;;;;;;;;5071577;28;20013;-36
2022/05/03 21:06:45;;;;;;;48.83;15.32;;;;;;;;;;5071446;28;20024;-35
2022/05/03 21:09:11;;;;;;;43.83;14.20;;;;;;;;;;5070749;28;20520;-34
2022/05/03 21:11:38;;;;;;;31.75;11.13;;;;;;;;;;5071130;28;20028;-40
2022/05/03 21:14:04;;;;;;;18.45;9.15;;;;;;;;;;5057136;28;20023;-35
2022/05/03 21:16:31;;;;;;;18.08;8.30;;;;;;;;;;5057259;28;20461;-40
2022/05/03 21:18:57;;;;;;;20.63;8.40;;;;;;;;;;5057313;28;20473;-39
2022/05/03 21:21:23;;;;;;;28.20;7.97;;;;;;;;;;5058078;28;20119;-40
2022/05/03 21:23:52;;;;;;;38.92;19.40;;;;;;;;;;5057307;28;20491;-38
2022/05/03 21:26:19;;;;;;;117.28;73.80;;;;;;;;;;5057262;28;20033;-39
2022/05/03 21:28:48;;;;;;;119.65;72.18;;;;;;;;;;5057487;28;20017;-39
2022/05/03 21:31:27;;;;;;;105.95;61.58;;;;;;;;;;5057250;28;20104;-35
2022/05/03 21:33:54;;;;;;;74.13;46.03;;;;;;;;;;5057733;28;20105;-40
2022/05/03 21:36:21;;;;;;;61.03;35.25;;;;;;;;;;5057629;28;20048;-40
2022/05/03 21:38:47;;;;;;;70.95;41.72;;;;;;;;;;5057765;28;20123;-38
2022/05/03 21:41:13;;;;;;;192.98;121.03;;;;;;;;;;5058213;28;20028;-34
2022/05/03 21:43:42;;;;;;;121.20;69.57;;;;;;;;;;5056703;28;20079;-40
2022/05/03 21:46:09;;;;;;;153.50;86.95;;;;;;;;;;5056512;28;20035;-38
2022/05/03 21:48:35;;;;;;;202.10;112.38;;;;;;;;;;5056529;28;20738;-41
2022/05/03 21:51:01;;;;;;;216.30;123.35;;;;;;;;;;5056466;28;20025;-40
2022/05/03 21:53:27;;;;;;;331.23;194.80;;;;;;;;;;5057320;28;20031;-38
2022/05/03 21:55:54;;;;;;;243.73;139.05;;;;;;;;;;5057346;28;20028;-37
2022/05/03 21:58:20;;;;;;;181.85;107.10;;;;;;;;;;5056668;28;20079;-36
2022/05/03 22:00:53;;;;;;;141.25;85.00;;;;;;;;;;5056878;28;20106;-35
2022/05/03 22:03:20;;;;;;;135.30;81.35;;;;;;;;;;5058578;28;20030;-38
2022/05/03 22:05:48;;;;;;;112.10;64.00;;;;;;;;;;5057312;28;20052;-37
2022/05/03 22:08:15;;;;;;;200.18;121.53;;;;;;;;;;5072433;28;20024;-35
2022/05/03 22:10:41;;;;;;;187.68;99.13;;;;;;;;;;5056839;28;20032;-35
2022/05/03 22:13:08;;;;;;;305.95;175.10;;;;;;;;;;5057041;28;20032;-36
2022/05/03 22:15:34;;;;;;;212.13;122.28;;;;;;;;;;5056963;28;20417;-34
2022/05/03 22:18:00;;;;;;;205.02;112.38;;;;;;;;;;5057050;28;20107;-35
2022/05/03 22:20:28;;;;;;;222.80;122.28;;;;;;;;;;5056754;28;20107;-35
2022/05/03 22:22:57;;;;;;;204.68;111.82;;;;;;;;;;5056842;28;20400;-37
2022/05/03 22:25:23;;;;;;;186.65;102.65;;;;;;;;;;5054675;28;20020;-34
2022/05/03 22:27:49;;;;;;;166.43;94.63;;;;;;;;;;5073722;28;20038;-35
2022/05/03 22:30:15;;;;;;;143.77;83.60;;;;;;;;;;5073225;28;20017;-36
2022/05/03 22:32:41;;;;;;;134.07;77.25;;;;;;;;;;5073430;28;20021;-35
2022/05/03 22:35:10;;;;;;;116.63;69.07;;;;;;;;;;5073586;28;20056;-35
2022/05/03 22:37:36;;;;;;;108.70;61.17;;;;;;;;;;5073382;28;20021;-35
2022/05/03 22:40:02;;;;;;;109.80;60.03;;;;;;;;;;5073536;28;20464;-36
2022/05/03 22:42:36;;;;;;;95.57;54.20;;;;;;;;;;5072959;28;20033;-38
2022/05/03 22:45:09;;;;;;;86.32;49.72;;;;;;;;;;5073309;28;20391;-35
2022/05/03 22:47:35;;;;;;;79.38;46.47;;;;;;;;;;5073249;28;20387;-36
2022/05/03 22:50:05;;;;;;;75.15;44.53;;;;;;;;;;5073000;28;20031;-37
2022/05/03 22:52:31;;;;;;;71.85;41.63;;;;;;;;;;5073300;28;20108;-40
2022/05/03 22:54:58;;;;;;;70.72;38.58;;;;;;;;;;5072842;28;20472;-41
2022/05/03 22:57:24;;;;;;;70.97;38.88;;;;;;;;;;5073191;28;20431;-40
2022/05/03 22:59:50;;;;;;;54.50;33.22;;;;;;;;;;5073061;28;20028;-35
2022/05/03 23:02:16;;;;;;;48.08;28.92;;;;;;;;;;5072777;28;20496;-36
2022/05/03 23:04:42;;;;;;;49.33;28.48;;;;;;;;;;5072881;28;20081;-36
2022/05/03 23:07:08;;;;;;;42.35;26.05;;;;;;;;;;5073067;28;20024;-34
2022/05/03 23:09:34;;;;;;;39.40;24.83;;;;;;;;;;5072591;28;20020;-35
2022/05/03 23:12:00;;;;;;;36.42;23.05;;;;;;;;;;5073143;28;20040;-35
2022/05/03 23:14:29;;;;;;;38.30;21.92;;;;;;;;;;5072851;28;20023;-37
2022/05/03 23:16:55;;;;;;;33.85;20.95;;;;;;;;;;5072741;28;20021;-35
2022/05/03 23:19:23;;;;;;;30.50;18.88;;;;;;;;;;5072955;28;20077;-35
2022/05/03 23:21:49;;;;;;;28.00;17.35;;;;;;;;;;5072511;28;20399;-34
2022/05/03 23:24:15;;;;;;;28.13;17.15;;;;;;;;;;5072777;28;20024;-36
2022/05/03 23:26:42;;;;;;;26.90;15.95;;;;;;;;;;5072489;28;20461;-35
2022/05/03 23:29:08;;;;;;;24.30;16.08;;;;;;;;;;5072644;28;20031;-36
2022/05/03 23:31:36;;;;;;;24.63;16.33;;;;;;;;;;5072230;28;20476;-37
2022/05/03 23:36:48;;;;;;;21.52;13.13;;;;;;;;;;5072600;28;20456;-35
2022/05/03 23:39:14;;;;;;;19.38;13.48;;;;;;;;;;5072116;28;20020;-40
2022/05/03 23:41:41;;;;;;;17.88;12.55;;;;;;;;;;5072301;28;20032;-35
2022/05/03 23:44:07;;;;;;;17.10;13.15;;;;;;;;;;5072229;28;20024;-39
2022/05/03 23:46:33;;;;;;;17.70;12.63;;;;;;;;;;5072541;28;20078;-35
2022/05/03 23:48:59;;;;;;;19.17;11.65;;;;;;;;;;5072269;28;20100;-35
2022/05/03 23:51:25;;;;;;;15.40;10.77;;;;;;;;;;5072314;28;20017;-41
2022/05/03 23:53:51;;;;;;;16.10;10.57;;;;;;;;;;5072427;28;20052;-40
2022/05/03 23:56:17;;;;;;;20.70;10.82;;;;;;;;;;5072279;28;20021;-41
2022/05/03 23:58:44;;;;;;;14.15;10.63;;;;;;;;;;5072496;28;20033;-42
